sensor_id;sensor_type;location;lat;lon;timestamp;pressure;altitude;pressure_sealevel;temperature;humidity
64388;BME280;50709;52.648;4.764;2023-08-24T00:01:25;101900.16;;;23.14;56.34
64388;BME280;50709;52.648;4.764;2023-08-24T00:03:51;101904.31;;;23.48;55.50
64388;BME280;50709;52.648;4.764;2023-08-24T00:06:17;101889.03;;;23.28;57.11
64388;BME280;50709;52.648;4.764;2023-08-24T00:08:43;101886.94;;;23.38;56.38
64388;BME280;50709;52.648;4.764;2023-08-24T00:11:09;101890.59;;;23.33;56.99
64388;BME280;50709;52.648;4.764;2023-08-24T00:13:42;101892.19;;;23.14;56.92
64388;BME280;50709;52.648;4.764;2023-08-24T00:16:15;101898.50;;;23.10;57.63
64388;BME280;50709;52.648;4.764;2023-08-24T00:18:41;101895.41;;;22.95;56.21
64388;BME280;50709;52.648;4.764;2023-08-24T00:21:07;101893.84;;;22.90;57.07
64388;BME280;50709;52.648;4.764;2023-08-24T00:23:33;101899.06;;;22.93;57.09
64388;BME280;50709;52.648;4.764;2023-08-24T00:25:58;101884.19;;;23.14;57.72
64388;BME280;50709;52.648;4.764;2023-08-24T00:28:25;101896.09;;;23.02;56.73
64388;BME280;50709;52.648;4.764;2023-08-24T00:30:51;101895.00;;;23.08;57.37
64388;BME280;50709;52.648;4.764;2023-08-24T00:33:16;101889.53;;;22.85;57.67
64388;BME280;50709;52.648;4.764;2023-08-24T00:35:42;101877.38;;;23.04;57.42
64388;BME280;50709;52.648;4.764;2023-08-24T00:38:07;101870.28;;;23.04;57.97
64388;BME280;50709;52.648;4.764;2023-08-24T00:40:33;101872.44;;;22.64;59.03
64388;BME280;50709;52.648;4.764;2023-08-24T00:43:20;101880.38;;;22.67;59.04
64388;BME280;50709;52.648;4.764;2023-08-24T00:45:50;101875.91;;;22.95;58.14
64388;BME280;50709;52.648;4.764;2023-08-24T00:48:17;101882.72;;;22.48;59.56
64388;BME280;50709;52.648;4.764;2023-08-24T00:50:43;101883.38;;;22.57;58.59
64388;BME280;50709;52.648;4.764;2023-08-24T00:53:09;101872.47;;;22.91;58.62
64388;BME280;50709;52.648;4.764;2023-08-24T00:55:34;101874.63;;;23.07;57.42
64388;BME280;50709;52.648;4.764;2023-08-24T00:57:59;101878.03;;;23.10;58.35
64388;BME280;50709;52.648;4.764;2023-08-24T01:00:27;101884.50;;;23.03;57.60
64388;BME280;50709;52.648;4.764;2023-08-24T01:02:52;101888.06;;;22.75;58.89
64388;BME280;50709;52.648;4.764;2023-08-24T01:05:18;101882.88;;;22.72;59.41
64388;BME280;50709;52.648;4.764;2023-08-24T01:08:03;101881.50;;;22.59;59.70
64388;BME280;50709;52.648;4.764;2023-08-24T01:10:40;101878.88;;;22.85;58.49
64388;BME280;50709;52.648;4.764;2023-08-24T01:13:17;101869.97;;;22.87;59.34
64388;BME280;50709;52.648;4.764;2023-08-24T01:16:00;101861.88;;;22.90;59.10
64388;BME280;50709;52.648;4.764;2023-08-24T01:18:30;101870.88;;;22.85;58.67
64388;BME280;50709;52.648;4.764;2023-08-24T01:21:17;101876.47;;;22.49;59.99
64388;BME280;50709;52.648;4.764;2023-08-24T01:26:27;101866.75;;;22.48;59.84
64388;BME280;50709;52.648;4.764;2023-08-24T01:28:53;101850.78;;;22.48;59.96
64388;BME280;50709;52.648;4.764;2023-08-24T01:31:39;101864.47;;;22.36;60.99
64388;BME280;50709;52.648;4.764;2023-08-24T01:34:05;101859.97;;;22.66;60.37
64388;BME280;50709;52.648;4.764;2023-08-24T01:36:30;101860.44;;;22.53;60.09
64388;BME280;50709;52.648;4.764;2023-08-24T01:41:48;101860.56;;;22.48;59.76
64388;BME280;50709;52.648;4.764;2023-08-24T01:44:18;101836.25;;;22.85;59.88
64388;BME280;50709;52.648;4.764;2023-08-24T01:46:46;101857.06;;;22.74;60.28
64388;BME280;50709;52.648;4.764;2023-08-24T01:49:34;101866.50;;;22.56;60.49
64388;BME280;50709;52.648;4.764;2023-08-24T01:52:01;101855.38;;;22.72;59.78
64388;BME280;50709;52.648;4.764;2023-08-24T01:54:28;101834.69;;;22.80;59.69
64388;BME280;50709;52.648;4.764;2023-08-24T01:56:53;101853.03;;;22.32;59.83
64388;BME280;50709;52.648;4.764;2023-08-24T01:59:19;101845.50;;;22.17;60.61
64388;BME280;50709;52.648;4.764;2023-08-24T02:01:44;101830.47;;;22.16;61.21
64388;BME280;50709;52.648;4.764;2023-08-24T02:04:10;101839.88;;;22.56;61.01
64388;BME280;50709;52.648;4.764;2023-08-24T02:06:35;101851.59;;;22.50;60.78
64388;BME280;50709;52.648;4.764;2023-08-24T02:09:00;101844.44;;;22.81;59.85
64388;BME280;50709;52.648;4.764;2023-08-24T02:11:46;101843.31;;;22.60;60.34
64388;BME280;50709;52.648;4.764;2023-08-24T02:14:11;101833.09;;;22.74;60.12
64388;BME280;50709;52.648;4.764;2023-08-24T02:16:37;101804.34;;;22.29;60.20
64388;BME280;50709;52.648;4.764;2023-08-24T02:19:04;101829.53;;;22.47;60.86
64388;BME280;50709;52.648;4.764;2023-08-24T02:21:31;101832.31;;;22.44;60.67
64388;BME280;50709;52.648;4.764;2023-08-24T02:23:56;101832.38;;;22.69;60.83
64388;BME280;50709;52.648;4.764;2023-08-24T02:26:22;101835.50;;;22.25;61.27
64388;BME280;50709;52.648;4.764;2023-08-24T02:28:47;101835.59;;;22.52;60.51
64388;BME280;50709;52.648;4.764;2023-08-24T02:31:13;101836.75;;;22.70;60.30
64388;BME280;50709;52.648;4.764;2023-08-24T02:33:39;101838.09;;;22.83;60.64
64388;BME280;50709;52.648;4.764;2023-08-24T02:36:05;101819.22;;;22.36;60.79
64388;BME280;50709;52.648;4.764;2023-08-24T02:38:30;101823.84;;;22.29;60.65
64388;BME280;50709;52.648;4.764;2023-08-24T02:41:03;101821.88;;;22.36;61.29
64388;BME280;50709;52.648;4.764;2023-08-24T02:43:29;101816.75;;;22.30;61.83
64388;BME280;50709;52.648;4.764;2023-08-24T02:46:14;101811.88;;;22.14;62.23
64388;BME280;50709;52.648;4.764;2023-08-24T02:48:40;101804.66;;;22.20;62.11
64388;BME280;50709;52.648;4.764;2023-08-24T02:51:05;101816.13;;;22.22;61.64
64388;BME280;50709;52.648;4.764;2023-08-24T02:53:31;101793.88;;;22.24;62.23
64388;BME280;50709;52.648;4.764;2023-08-24T02:55:57;101783.25;;;22.23;62.04
64388;BME280;50709;52.648;4.764;2023-08-24T02:58:23;101795.19;;;22.11;62.45
64388;BME280;50709;52.648;4.764;2023-08-24T03:00:48;101795.34;;;22.05;62.31
64388;BME280;50709;52.648;4.764;2023-08-24T03:03:14;101802.25;;;22.40;61.56
64388;BME280;50709;52.648;4.764;2023-08-24T03:05:41;101786.19;;;22.13;62.25
64388;BME280;50709;52.648;4.764;2023-08-24T03:08:06;101802.44;;;22.34;62.27
64388;BME280;50709;52.648;4.764;2023-08-24T03:10:35;101803.41;;;22.60;61.99
64388;BME280;50709;52.648;4.764;2023-08-24T03:13:00;101797.69;;;22.44;61.47
64388;BME280;50709;52.648;4.764;2023-08-24T03:15:27;101789.34;;;22.26;62.09
64388;BME280;50709;52.648;4.764;2023-08-24T03:17:53;101780.94;;;22.40;62.08
64388;BME280;50709;52.648;4.764;2023-08-24T03:20:19;101777.56;;;22.63;61.56
64388;BME280;50709;52.648;4.764;2023-08-24T03:22:44;101771.19;;;22.41;62.09
64388;BME280;50709;52.648;4.764;2023-08-24T03:25:10;101765.25;;;22.31;62.10
64388;BME280;50709;52.648;4.764;2023-08-24T03:27:55;101762.13;;;22.18;63.14
64388;BME280;50709;52.648;4.764;2023-08-24T03:30:20;101768.19;;;22.23;62.20
64388;BME280;50709;52.648;4.764;2023-08-24T03:32:47;101770.34;;;22.39;62.28
64388;BME280;50709;52.648;4.764;2023-08-24T03:35:13;101764.78;;;22.18;63.15
64388;BME280;50709;52.648;4.764;2023-08-24T03:37:38;101751.13;;;22.29;62.38
64388;BME280;50709;52.648;4.764;2023-08-24T03:40:04;101755.50;;;22.03;62.63
64388;BME280;50709;52.648;4.764;2023-08-24T03:42:31;101747.31;;;22.09;63.26
64388;BME280;50709;52.648;4.764;2023-08-24T03:44:59;101755.41;;;22.06;63.02
64388;BME280;50709;52.648;4.764;2023-08-24T03:47:25;101749.78;;;22.15;63.17
64388;BME280;50709;52.648;4.764;2023-08-24T03:49:50;101758.59;;;22.17;62.87
64388;BME280;50709;52.648;4.764;2023-08-24T03:52:16;101756.41;;;22.30;63.14
64388;BME280;50709;52.648;4.764;2023-08-24T03:54:41;101752.50;;;22.14;62.87
64388;BME280;50709;52.648;4.764;2023-08-24T03:57:07;101757.84;;;22.42;62.43
64388;BME280;50709;52.648;4.764;2023-08-24T03:59:33;101764.69;;;22.49;62.55
64388;BME280;50709;52.648;4.764;2023-08-24T04:01:58;101765.16;;;22.62;62.02
64388;BME280;50709;52.648;4.764;2023-08-24T04:04:27;101778.41;;;22.37;62.23
64388;BME280;50709;52.648;4.764;2023-08-24T04:06:53;101777.25;;;22.46;62.24
64388;BME280;50709;52.648;4.764;2023-08-24T04:09:18;101775.03;;;22.30;62.29
64388;BME280;50709;52.648;4.764;2023-08-24T04:11:44;101765.16;;;22.36;62.76
64388;BME280;50709;52.648;4.764;2023-08-24T04:14:09;101770.25;;;22.13;63.06
64388;BME280;50709;52.648;4.764;2023-08-24T04:16:54;101770.97;;;22.18;62.87
64388;BME280;50709;52.648;4.764;2023-08-24T04:19:21;101773.38;;;22.26;63.30
64388;BME280;50709;52.648;4.764;2023-08-24T04:21:46;101773.75;;;22.15;63.32
64388;BME280;50709;52.648;4.764;2023-08-24T04:24:11;101756.47;;;22.00;63.47
64388;BME280;50709;52.648;4.764;2023-08-24T04:26:37;101762.03;;;21.93;64.57
64388;BME280;50709;52.648;4.764;2023-08-24T04:29:02;101759.56;;;21.87;63.77
64388;BME280;50709;52.648;4.764;2023-08-24T04:31:28;101754.88;;;21.95;64.07
64388;BME280;50709;52.648;4.764;2023-08-24T04:33:53;101761.91;;;22.26;63.19
64388;BME280;50709;52.648;4.764;2023-08-24T04:36:19;101757.72;;;22.17;63.77
64388;BME280;50709;52.648;4.764;2023-08-24T04:38:44;101765.06;;;22.09;63.77
64388;BME280;50709;52.648;4.764;2023-08-24T04:41:09;101759.47;;;22.18;63.23
64388;BME280;50709;52.648;4.764;2023-08-24T04:43:36;101755.50;;;22.03;63.62
64388;BME280;50709;52.648;4.764;2023-08-24T04:46:02;101763.19;;;22.12;63.61
64388;BME280;50709;52.648;4.764;2023-08-24T04:48:27;101750.03;;;21.79;63.42
64388;BME280;50709;52.648;4.764;2023-08-24T04:50:52;101753.91;;;21.97;64.04
64388;BME280;50709;52.648;4.764;2023-08-24T04:53:19;101737.75;;;21.75;63.49
64388;BME280;50709;52.648;4.764;2023-08-24T04:55:46;101744.31;;;21.92;64.46
64388;BME280;50709;52.648;4.764;2023-08-24T04:58:12;101737.28;;;22.19;63.90
64388;BME280;50709;52.648;4.764;2023-08-24T05:00:38;101743.63;;;22.15;63.27
64388;BME280;50709;52.648;4.764;2023-08-24T05:03:05;101747.03;;;21.90;64.08
64388;BME280;50709;52.648;4.764;2023-08-24T05:05:31;101739.06;;;21.90;64.70
64388;BME280;50709;52.648;4.764;2023-08-24T05:07:58;101732.97;;;21.87;64.53
64388;BME280;50709;52.648;4.764;2023-08-24T05:10:24;101730.38;;;21.83;64.95
64388;BME280;50709;52.648;4.764;2023-08-24T05:12:50;101730.94;;;21.95;64.51
64388;BME280;50709;52.648;4.764;2023-08-24T05:15:15;101720.72;;;22.09;63.71
64388;BME280;50709;52.648;4.764;2023-08-24T05:17:42;101731.47;;;22.06;64.17
64388;BME280;50709;52.648;4.764;2023-08-24T05:20:08;101731.22;;;21.86;64.71
64388;BME280;50709;52.648;4.764;2023-08-24T05:22:36;101735.81;;;21.80;64.71
64388;BME280;50709;52.648;4.764;2023-08-24T05:25:01;101744.13;;;21.98;64.91
64388;BME280;50709;52.648;4.764;2023-08-24T05:27:27;101735.53;;;21.90;63.95
64388;BME280;50709;52.648;4.764;2023-08-24T05:29:52;101748.25;;;21.80;65.09
64388;BME280;50709;52.648;4.764;2023-08-24T05:32:19;101739.97;;;21.59;65.09
64388;BME280;50709;52.648;4.764;2023-08-24T05:34:45;101738.56;;;21.77;65.19
64388;BME280;50709;52.648;4.764;2023-08-24T05:37:12;101722.38;;;21.55;65.00
64388;BME280;50709;52.648;4.764;2023-08-24T05:39:39;101725.50;;;21.70;65.11
64388;BME280;50709;52.648;4.764;2023-08-24T05:42:05;101701.50;;;21.41;65.62
64388;BME280;50709;52.648;4.764;2023-08-24T05:44:36;101697.72;;;21.80;64.82
64388;BME280;50709;52.648;4.764;2023-08-24T05:47:01;101712.38;;;21.65;64.94
64388;BME280;50709;52.648;4.764;2023-08-24T05:49:27;101713.13;;;21.68;65.79
64388;BME280;50709;52.648;4.764;2023-08-24T05:51:53;101711.78;;;21.83;64.68
64388;BME280;50709;52.648;4.764;2023-08-24T05:54:19;101700.50;;;21.75;65.12
64388;BME280;50709;52.648;4.764;2023-08-24T05:56:48;101705.03;;;21.73;65.36
64388;BME280;50709;52.648;4.764;2023-08-24T05:59:15;101697.13;;;21.70;65.54
64388;BME280;50709;52.648;4.764;2023-08-24T06:01:48;101688.91;;;21.48;65.62
64388;BME280;50709;52.648;4.764;2023-08-24T06:04:16;101694.22;;;22.06;64.59
64388;BME280;50709;52.648;4.764;2023-08-24T06:06:42;101682.16;;;21.96;64.58
64388;BME280;50709;52.648;4.764;2023-08-24T06:09:27;101679.41;;;21.99;65.00
64388;BME280;50709;52.648;4.764;2023-08-24T06:11:53;101673.50;;;21.89;65.45
64388;BME280;50709;52.648;4.764;2023-08-24T06:14:18;101666.22;;;21.96;65.30
64388;BME280;50709;52.648;4.764;2023-08-24T06:16:44;101662.53;;;21.98;65.74
64388;BME280;50709;52.648;4.764;2023-08-24T06:19:09;101641.56;;;22.17;64.64
64388;BME280;50709;52.648;4.764;2023-08-24T06:21:35;101638.06;;;22.15;64.91
64388;BME280;50709;52.648;4.764;2023-08-24T06:24:20;101633.88;;;22.60;63.89
64388;BME280;50709;52.648;4.764;2023-08-24T06:26:45;101625.34;;;22.50;64.04
64388;BME280;50709;52.648;4.764;2023-08-24T06:29:11;101608.28;;;22.81;63.29
64388;BME280;50709;52.648;4.764;2023-08-24T06:31:36;101627.25;;;22.72;63.73
64388;BME280;50709;52.648;4.764;2023-08-24T06:34:02;101619.00;;;22.55;63.72
64388;BME280;50709;52.648;4.764;2023-08-24T06:36:27;101620.88;;;22.26;64.84
64388;BME280;50709;52.648;4.764;2023-08-24T06:38:53;101627.19;;;22.74;63.96
64388;BME280;50709;52.648;4.764;2023-08-24T06:41:19;101619.25;;;22.22;64.86
64388;BME280;50709;52.648;4.764;2023-08-24T06:43:45;101629.16;;;22.16;65.27
64388;BME280;50709;52.648;4.764;2023-08-24T06:46:10;101627.44;;;22.91;62.86
64388;BME280;50709;52.648;4.764;2023-08-24T06:48:36;101611.63;;;23.10;62.56
64388;BME280;50709;52.648;4.764;2023-08-24T06:51:04;101611.50;;;22.90;63.40
64388;BME280;50709;52.648;4.764;2023-08-24T06:53:30;101616.47;;;22.51;63.38
64388;BME280;50709;52.648;4.764;2023-08-24T06:55:56;101614.63;;;23.01;62.55
64388;BME280;50709;52.648;4.764;2023-08-24T06:58:22;101604.75;;;22.81;62.78
64388;BME280;50709;52.648;4.764;2023-08-24T07:00:48;101598.53;;;22.80;62.79
64388;BME280;50709;52.648;4.764;2023-08-24T07:03:16;101603.25;;;22.97;62.15
64388;BME280;50709;52.648;4.764;2023-08-24T07:05:43;101595.31;;;22.96;62.45
64388;BME280;50709;52.648;4.764;2023-08-24T07:08:10;101597.66;;;23.04;62.23
64388;BME280;50709;52.648;4.764;2023-08-24T07:10:36;101593.13;;;23.31;61.79
64388;BME280;50709;52.648;4.764;2023-08-24T07:13:01;101579.88;;;23.28;61.59
64388;BME280;50709;52.648;4.764;2023-08-24T07:15:27;101607.72;;;23.21;62.12
64388;BME280;50709;52.648;4.764;2023-08-24T07:17:52;101577.50;;;23.66;60.61
64388;BME280;50709;52.648;4.764;2023-08-24T07:20:21;101581.88;;;23.67;61.21
64388;BME280;50709;52.648;4.764;2023-08-24T07:22:47;101597.81;;;23.68;60.67
64388;BME280;50709;52.648;4.764;2023-08-24T07:25:14;101582.91;;;23.18;62.29
64388;BME280;50709;52.648;4.764;2023-08-24T07:27:40;101567.75;;;23.65;61.62
64388;BME280;50709;52.648;4.764;2023-08-24T07:30:06;101556.75;;;23.73;60.42
64388;BME280;50709;52.648;4.764;2023-08-24T07:32:32;101539.03;;;23.49;61.66
64388;BME280;50709;52.648;4.764;2023-08-24T07:35:37;101561.50;;;23.66;60.84
64388;BME280;50709;52.648;4.764;2023-08-24T07:38:04;101551.66;;;23.46;61.31
64388;BME280;50709;52.648;4.764;2023-08-24T07:40:30;101542.22;;;23.37;61.74
64388;BME280;50709;52.648;4.764;2023-08-24T07:42:57;101551.09;;;23.80;61.12
64388;BME280;50709;52.648;4.764;2023-08-24T07:45:22;101558.16;;;24.24;59.89
64388;BME280;50709;52.648;4.764;2023-08-24T07:47:49;101566.34;;;24.19;59.81
64388;BME280;50709;52.648;4.764;2023-08-24T07:50:14;101563.00;;;24.14;59.75
64388;BME280;50709;52.648;4.764;2023-08-24T07:52:41;101566.28;;;24.00;60.12
64388;BME280;50709;52.648;4.764;2023-08-24T07:55:07;101552.69;;;24.27;59.96
64388;BME280;50709;52.648;4.764;2023-08-24T07:57:34;101551.31;;;24.58;59.13
64388;BME280;50709;52.648;4.764;2023-08-24T07:59:59;101562.53;;;24.46;59.25
64388;BME280;50709;52.648;4.764;2023-08-24T08:02:26;101561.81;;;24.22;59.78
64388;BME280;50709;52.648;4.764;2023-08-24T08:04:56;101539.47;;;24.24;59.56
64388;BME280;50709;52.648;4.764;2023-08-24T08:07:23;101521.78;;;24.01;59.66
64388;BME280;50709;52.648;4.764;2023-08-24T08:09:49;101547.19;;;24.30;60.18
64388;BME280;50709;52.648;4.764;2023-08-24T08:12:14;101537.19;;;24.35;59.73
64388;BME280;50709;52.648;4.764;2023-08-24T08:14:40;101542.84;;;24.28;60.00
64388;BME280;50709;52.648;4.764;2023-08-24T08:17:10;101537.53;;;23.64;60.69
64388;BME280;50709;52.648;4.764;2023-08-24T08:19:58;101541.81;;;24.11;60.41
64388;BME280;50709;52.648;4.764;2023-08-24T08:22:25;101539.47;;;24.04;60.65
64388;BME280;50709;52.648;4.764;2023-08-24T08:24:51;101535.72;;;24.08;60.27
64388;BME280;50709;52.648;4.764;2023-08-24T08:27:19;101540.09;;;23.67;61.81
64388;BME280;50709;52.648;4.764;2023-08-24T08:29:45;101515.13;;;23.48;62.21
64388;BME280;50709;52.648;4.764;2023-08-24T08:32:11;101543.69;;;23.87;61.52
64388;BME280;50709;52.648;4.764;2023-08-24T08:34:37;101521.41;;;23.90;61.66
64388;BME280;50709;52.648;4.764;2023-08-24T08:37:03;101532.56;;;23.77;61.24
64388;BME280;50709;52.648;4.764;2023-08-24T08:39:28;101494.84;;;23.44;61.89
64388;BME280;50709;52.648;4.764;2023-08-24T08:41:55;101498.94;;;23.52;62.31
64388;BME280;50709;52.648;4.764;2023-08-24T08:44:41;101522.06;;;23.95;61.73
64388;BME280;50709;52.648;4.764;2023-08-24T08:47:10;101522.69;;;23.79;61.74
64388;BME280;50709;52.648;4.764;2023-08-24T08:49:38;101510.69;;;23.69;61.83
64388;BME280;50709;52.648;4.764;2023-08-24T08:52:04;101524.75;;;23.73;62.01
64388;BME280;50709;52.648;4.764;2023-08-24T08:54:30;101514.88;;;23.54;62.98
64388;BME280;50709;52.648;4.764;2023-08-24T08:57:32;101506.94;;;23.52;63.12
64388;BME280;50709;52.648;4.764;2023-08-24T08:59:57;101506.78;;;23.35;63.65
64388;BME280;50709;52.648;4.764;2023-08-24T09:02:23;101508.81;;;23.28;64.38
64388;BME280;50709;52.648;4.764;2023-08-24T09:04:51;101459.69;;;23.13;64.32
64388;BME280;50709;52.648;4.764;2023-08-24T09:07:17;101492.66;;;23.54;63.73
64388;BME280;50709;52.648;4.764;2023-08-24T09:09:43;101465.59;;;22.98;65.41
64388;BME280;50709;52.648;4.764;2023-08-24T09:12:09;101453.63;;;22.86;65.20
64388;BME280;50709;52.648;4.764;2023-08-24T09:14:35;101467.28;;;23.00;65.85
64388;BME280;50709;52.648;4.764;2023-08-24T09:17:01;101452.91;;;23.05;65.48
64388;BME280;50709;52.648;4.764;2023-08-24T09:19:30;101460.13;;;23.45;64.90
64388;BME280;50709;52.648;4.764;2023-08-24T09:21:57;101476.41;;;23.60;63.88
64388;BME280;50709;52.648;4.764;2023-08-24T09:24:42;101492.09;;;23.01;66.14
64388;BME280;50709;52.648;4.764;2023-08-24T09:27:16;101492.44;;;22.93;66.18
64388;BME280;50709;52.648;4.764;2023-08-24T09:29:48;101472.38;;;22.61;67.44
64388;BME280;50709;52.648;4.764;2023-08-24T09:32:14;101503.19;;;22.90;66.80
64388;BME280;50709;52.648;4.764;2023-08-24T09:34:41;101501.44;;;23.35;65.43
64388;BME280;50709;52.648;4.764;2023-08-24T09:37:13;101505.41;;;23.01;66.86
64388;BME280;50709;52.648;4.764;2023-08-24T09:39:39;101474.56;;;22.95;67.07
64388;BME280;50709;52.648;4.764;2023-08-24T09:42:05;101472.16;;;22.89;66.59
64388;BME280;50709;52.648;4.764;2023-08-24T09:44:31;101493.81;;;23.26;66.40
64388;BME280;50709;52.648;4.764;2023-08-24T09:46:56;101492.06;;;23.47;65.21
64388;BME280;50709;52.648;4.764;2023-08-24T09:49:23;101484.88;;;23.27;65.96
64388;BME280;50709;52.648;4.764;2023-08-24T09:51:51;101462.09;;;23.42;65.14
64388;BME280;50709;52.648;4.764;2023-08-24T09:54:21;101491.88;;;23.29;66.28
64388;BME280;50709;52.648;4.764;2023-08-24T09:56:50;101478.38;;;23.77;64.03
64388;BME280;50709;52.648;4.764;2023-08-24T09:59:17;101493.88;;;23.67;64.94
64388;BME280;50709;52.648;4.764;2023-08-24T10:01:51;101486.09;;;23.83;64.23
64388;BME280;50709;52.648;4.764;2023-08-24T10:04:24;101513.09;;;23.75;64.93
64388;BME280;50709;52.648;4.764;2023-08-24T10:07:06;101503.81;;;23.63;65.40
64388;BME280;50709;52.648;4.764;2023-08-24T10:09:41;101506.31;;;23.89;64.77
64388;BME280;50709;52.648;4.764;2023-08-24T10:12:09;101511.69;;;23.87;64.75
64388;BME280;50709;52.648;4.764;2023-08-24T10:17:16;101519.47;;;23.93;64.92
64388;BME280;50709;52.648;4.764;2023-08-24T10:19:43;101544.81;;;24.24;63.58
64388;BME280;50709;52.648;4.764;2023-08-24T10:22:09;101540.13;;;24.29;63.42
64388;BME280;50709;52.648;4.764;2023-08-24T10:24:35;101550.06;;;24.46;62.40
64388;BME280;50709;52.648;4.764;2023-08-24T10:27:03;101549.78;;;24.52;61.84
64388;BME280;50709;52.648;4.764;2023-08-24T10:29:29;101594.94;;;24.78;61.21
64388;BME280;50709;52.648;4.764;2023-08-24T10:31:55;101576.97;;;24.62;61.58
64388;BME280;50709;52.648;4.764;2023-08-24T10:34:23;101592.13;;;24.60;63.54
64388;BME280;50709;52.648;4.764;2023-08-24T10:36:50;101579.22;;;24.51;63.94
64388;BME280;50709;52.648;4.764;2023-08-24T10:39:17;101529.00;;;24.19;64.77
64388;BME280;50709;52.648;4.764;2023-08-24T10:41:52;101542.03;;;24.07;66.08
64388;BME280;50709;52.648;4.764;2023-08-24T10:44:34;101536.47;;;23.68;67.76
64388;BME280;50709;52.648;4.764;2023-08-24T10:49:38;101496.38;;;23.05;69.47
64388;BME280;50709;52.648;4.764;2023-08-24T10:52:22;101518.94;;;23.63;67.98
64388;BME280;50709;52.648;4.764;2023-08-24T10:55:26;101535.31;;;23.76;66.90
64388;BME280;50709;52.648;4.764;2023-08-24T10:57:58;101525.09;;;23.65;67.74
64388;BME280;50709;52.648;4.764;2023-08-24T11:00:27;101524.53;;;23.34;69.07
64388;BME280;50709;52.648;4.764;2023-08-24T11:02:53;101501.59;;;23.08;69.95
64388;BME280;50709;52.648;4.764;2023-08-24T11:05:38;101523.50;;;22.93;70.86
64388;BME280;50709;52.648;4.764;2023-08-24T11:08:07;101527.50;;;23.27;69.58
64388;BME280;50709;52.648;4.764;2023-08-24T11:13:27;101479.31;;;23.33;69.46
64388;BME280;50709;52.648;4.764;2023-08-24T11:15:52;101485.16;;;22.97;70.85
64388;BME280;50709;52.648;4.764;2023-08-24T11:18:24;101467.69;;;22.90;72.00
64388;BME280;50709;52.648;4.764;2023-08-24T11:20:55;101460.34;;;22.74;72.64
64388;BME280;50709;52.648;4.764;2023-08-24T11:23:23;101445.56;;;22.65;73.26
64388;BME280;50709;52.648;4.764;2023-08-24T11:25:51;101421.88;;;22.36;74.27
64388;BME280;50709;52.648;4.764;2023-08-24T11:28:20;101444.72;;;22.41;74.82
64388;BME280;50709;52.648;4.764;2023-08-24T11:30:47;101403.19;;;22.37;74.35
64388;BME280;50709;52.648;4.764;2023-08-24T11:33:13;101414.03;;;22.55;73.88
64388;BME280;50709;52.648;4.764;2023-08-24T11:35:43;101401.22;;;22.42;75.07
64388;BME280;50709;52.648;4.764;2023-08-24T11:38:11;101380.06;;;22.39;74.41
64388;BME280;50709;52.648;4.764;2023-08-24T11:40:38;101407.66;;;22.59;73.64
64388;BME280;50709;52.648;4.764;2023-08-24T11:43:05;101395.56;;;22.96;72.41
64388;BME280;50709;52.648;4.764;2023-08-24T11:45:35;101396.94;;;23.27;70.78
64388;BME280;50709;52.648;4.764;2023-08-24T11:48:03;101361.19;;;22.67;73.22
64388;BME280;50709;52.648;4.764;2023-08-24T11:50:32;101366.69;;;22.85;72.47
64388;BME280;50709;52.648;4.764;2023-08-24T11:53:00;101385.09;;;22.69;73.91
64388;BME280;50709;52.648;4.764;2023-08-24T11:55:26;101386.38;;;22.59;74.04
64388;BME280;50709;52.648;4.764;2023-08-24T11:57:51;101382.47;;;22.90;72.97
64388;BME280;50709;52.648;4.764;2023-08-24T12:00:20;101397.16;;;23.00;73.48
64388;BME280;50709;52.648;4.764;2023-08-24T12:02:47;101371.00;;;22.88;72.65
64388;BME280;50709;52.648;4.764;2023-08-24T12:05:23;101376.78;;;22.99;72.43
64388;BME280;50709;52.648;4.764;2023-08-24T12:07:49;101367.41;;;23.11;71.68
64388;BME280;50709;52.648;4.764;2023-08-24T12:10:14;101373.97;;;23.45;70.62
64388;BME280;50709;52.648;4.764;2023-08-24T12:12:40;101365.13;;;23.65;69.34
64388;BME280;50709;52.648;4.764;2023-08-24T12:15:06;101358.94;;;23.83;68.80
64388;BME280;50709;52.648;4.764;2023-08-24T12:17:42;101337.06;;;23.75;68.91
64388;BME280;50709;52.648;4.764;2023-08-24T12:20:15;101350.78;;;23.26;71.81
64388;BME280;50709;52.648;4.764;2023-08-24T12:22:41;101327.47;;;23.71;69.66
64388;BME280;50709;52.648;4.764;2023-08-24T12:25:10;101331.00;;;23.92;68.81
64388;BME280;50709;52.648;4.764;2023-08-24T12:28:14;101341.34;;;24.19;67.66
64388;BME280;50709;52.648;4.764;2023-08-24T12:30:47;101330.72;;;24.37;66.99
64388;BME280;50709;52.648;4.764;2023-08-24T12:33:30;101343.56;;;24.28;67.60
64388;BME280;50709;52.648;4.764;2023-08-24T12:35:56;101314.28;;;23.89;68.59
64388;BME280;50709;52.648;4.764;2023-08-24T12:38:24;101296.00;;;24.00;68.58
64388;BME280;50709;52.648;4.764;2023-08-24T12:40:51;101298.78;;;24.16;68.19
64388;BME280;50709;52.648;4.764;2023-08-24T12:43:17;101315.31;;;24.24;67.88
64388;BME280;50709;52.648;4.764;2023-08-24T12:45:42;101282.31;;;23.87;68.75
64388;BME280;50709;52.648;4.764;2023-08-24T12:48:09;101279.81;;;24.03;68.35
64388;BME280;50709;52.648;4.764;2023-08-24T12:50:38;101302.53;;;24.31;67.78
64388;BME280;50709;52.648;4.764;2023-08-24T12:53:04;101292.41;;;24.38;68.18
64388;BME280;50709;52.648;4.764;2023-08-24T12:55:32;101287.81;;;24.59;67.07
64388;BME280;50709;52.648;4.764;2023-08-24T12:57:57;101266.50;;;24.76;66.04
64388;BME280;50709;52.648;4.764;2023-08-24T13:00:23;101283.28;;;24.24;66.82
64388;BME280;50709;52.648;4.764;2023-08-24T13:02:51;101279.28;;;24.33;68.40
64388;BME280;50709;52.648;4.764;2023-08-24T13:05:17;101259.50;;;24.00;69.36
64388;BME280;50709;52.648;4.764;2023-08-24T13:08:02;101250.81;;;24.14;69.37
64388;BME280;50709;52.648;4.764;2023-08-24T13:10:28;101242.22;;;24.27;69.10